Wednesday, October 22, 2014
22:31 UTC
  |  Log In   |  Register Free
Airport Search:

Vidalia Regional Airport
(KVDI)

Vidalia Regional Airport Diagram
No Airport Diagram Available

FAA data valid effective September 18, 2014 - November 13, 2014 (unless otherwise noted).

 
 
 
 
 
 
 
 
 
 
 
 
 
 

Current Aviation Weather for Vidalia Regional Airport (KVDI)

The most recent METAR observation for KVDI was updated at: 2217
METAR Summary (Translated METAR)
KVDI
222155Z AUTO 00000KT 10SM CLR 21/07 A3003 RMK AO2
KAZE
222155Z AUTO 00000KT 10SM CLR 22/07 A3002 RMK AO2 T02180070
(23.2 nm SW from KVDI)
KSBO
222155Z AUTO 10SM CLR 22/05 A3003 RMK AO2
(25 nm NE from KVDI)
TAF
No TAF information found within 50 nm of KVDI
  Airport Weather Conditions for KVDI

 Current Weather at VDI
70° F
Fair
North winds at 0.0 mph
VDI NOAA Radar

Pressure: 30.03 in
Humidity: 40%
Wind: Calm
Dew Point: 44.6°F
Visibility: 10.00 mi


Airport Weather Forecast for KVDI

Translated METAR and TAF for KVDI
Translated METAR for KVDI (2225 UTC 22 October 2014)
found at http://aviationweather.gov/adds/metars/
 
METAR text: KVDI 222215Z AUTO 01003KT 10SM CLR 20/07 A3003 RMK AO2
Conditions at: KVDI (VIDALIA MUNI , GA, US) observed 2215 UTC 22 October 2014
Temperature: 20.0°C (68°F)
Dewpoint: 7.0°C (45°F) [RH = 43%]
Pressure (altimeter): 30.03 inches Hg (1017.0 mb)
Winds: from the N (10 degrees) at 3 MPH (3 knots; 1.6 m/s)
Visibility: 10 or more miles (16+ km)
Ceiling: at least 12,000 feet AGL
Clouds: sky clear below 12,000 feet AGL
Weather: automated observation with no human augmentation;
there may or may not be significant weather present at this time
Translated TAF for KVDI

There is no translated TAF available for this airport

Find All Airport Services Find A Hotel Find A Rental Car Find A Golf Course Find A Restaurant $100 Hamburger



FBO's on the Field
FBO Company Facility Photos Services Transportation Aviation Fuel Prices: Prices include tax
Catering Weather Repair Courtesy Rental Type 100LL JetA JetA+ MOGAS 8087
 
Vidalia Regional Airport

This FBO has not yet been rated
FS: Phillips 66
Last Updated: Oct-20
Login to update fuel prices
SS:
Contact Vidalia Regional AirportMore FBO Information
 
Add another FBO Facility Photos Catering Weather Repair Courtesy Rental Type 100LL JetA JetA+ MOGAS 8087
Services Transportation Aviation Fuel Prices: Prices include tax


model-print
model-print
model-print
model-print